Aviation Digital Data Service (ADDS)

Output produced by METARs form (1120 UTC 20 October 2014)
found at http://aviationweather.gov/adds/metars/
 
KSYR 200844Z 2009/2106 VRB03KT P6SM SCT045 BKN120 
     FM201300 21008KT P6SM OVC120 
     FM202100 19010KT P6SM OVC060 
     PROB30 2103/2106 5SM -SHRA BR